sensor_id;sensor_type;location;lat;lon;timestamp;P1;durP1;ratioP1;P2;durP2;ratioP2
70008;SDS011;59542;37.950;-122.338;2022-12-29T00:01:34;12.00;;;3.22;;
70008;SDS011;59542;37.950;-122.338;2022-12-29T00:04:01;16.95;;;3.88;;
70008;SDS011;59542;37.950;-122.338;2022-12-29T00:06:28;13.57;;;3.53;;
70008;SDS011;59542;37.950;-122.338;2022-12-29T00:08:54;14.40;;;3.63;;
70008;SDS011;59542;37.950;-122.338;2022-12-29T00:11:22;18.23;;;4.30;;
70008;SDS011;59542;37.950;-122.338;2022-12-29T00:13:50;14.45;;;3.90;;
70008;SDS011;59542;37.950;-122.338;2022-12-29T00:19:02;17.40;;;4.38;;
70008;SDS011;59542;37.950;-122.338;2022-12-29T00:21:30;13.65;;;3.85;;
70008;SDS011;59542;37.950;-122.338;2022-12-29T00:24:16;19.45;;;4.43;;
70008;SDS011;59542;37.950;-122.338;2022-12-29T00:29:47;14.38;;;3.72;;
70008;SDS011;59542;37.950;-122.338;2022-12-29T00:32:33;12.55;;;3.25;;
70008;SDS011;59542;37.950;-122.338;2022-12-29T00:35:21;16.40;;;4.32;;
70008;SDS011;59542;37.950;-122.338;2022-12-29T00:37:51;24.88;;;4.88;;
70008;SDS011;59542;37.950;-122.338;2022-12-29T00:40:38;20.65;;;5.30;;
70008;SDS011;59542;37.950;-122.338;2022-12-29T00:43:22;19.35;;;4.75;;
70008;SDS011;59542;37.950;-122.338;2022-12-29T00:46:07;16.30;;;4.75;;
70008;SDS011;59542;37.950;-122.338;2022-12-29T00:48:33;12.63;;;3.97;;
70008;SDS011;59542;37.950;-122.338;2022-12-29T00:51:17;15.15;;;4.13;;
70008;SDS011;59542;37.950;-122.338;2022-12-29T00:53:43;15.50;;;4.88;;
70008;SDS011;59542;37.950;-122.338;2022-12-29T00:56:10;20.85;;;4.50;;
70008;SDS011;59542;37.950;-122.338;2022-12-29T00:58:36;15.80;;;3.80;;
70008;SDS011;59542;37.950;-122.338;2022-12-29T01:01:03;16.55;;;4.15;;
70008;SDS011;59542;37.950;-122.338;2022-12-29T01:03:34;13.38;;;4.07;;
70008;SDS011;59542;37.950;-122.338;2022-12-29T01:06:02;16.17;;;4.15;;
70008;SDS011;59542;37.950;-122.338;2022-12-29T01:08:29;15.98;;;5.07;;
70008;SDS011;59542;37.950;-122.338;2022-12-29T01:11:03;17.63;;;5.40;;
70008;SDS011;59542;37.950;-122.338;2022-12-29T01:13:31;19.02;;;4.60;;
70008;SDS011;59542;37.950;-122.338;2022-12-29T01:15:58;29.58;;;6.07;;
70008;SDS011;59542;37.950;-122.338;2022-12-29T01:18:25;16.50;;;4.63;;
70008;SDS011;59542;37.950;-122.338;2022-12-29T01:20:58;20.95;;;4.40;;
70008;SDS011;59542;37.950;-122.338;2022-12-29T01:23:28;17.92;;;4.80;;
70008;SDS011;59542;37.950;-122.338;2022-12-29T01:25:57;15.70;;;4.03;;
70008;SDS011;59542;37.950;-122.338;2022-12-29T01:28:33;19.05;;;4.90;;
70008;SDS011;59542;37.950;-122.338;2022-12-29T01:31:00;18.77;;;5.07;;
70008;SDS011;59542;37.950;-122.338;2022-12-29T01:33:26;13.45;;;4.28;;
70008;SDS011;59542;37.950;-122.338;2022-12-29T01:35:53;11.15;;;3.67;;
70008;SDS011;59542;37.950;-122.338;2022-12-29T01:38:19;12.68;;;3.90;;
70008;SDS011;59542;37.950;-122.338;2022-12-29T01:40:46;13.75;;;3.90;;
70008;SDS011;59542;37.950;-122.338;2022-12-29T01:43:12;21.38;;;5.07;;
70008;SDS011;59542;37.950;-122.338;2022-12-29T01:46:15;15.40;;;4.60;;
70008;SDS011;59542;37.950;-122.338;2022-12-29T01:48:54;14.40;;;5.75;;
70008;SDS011;59542;37.950;-122.338;2022-12-29T01:51:30;20.95;;;5.50;;
70008;SDS011;59542;37.950;-122.338;2022-12-29T01:53:59;18.77;;;4.65;;
70008;SDS011;59542;37.950;-122.338;2022-12-29T01:56:29;22.35;;;5.68;;
70008;SDS011;59542;37.950;-122.338;2022-12-29T01:58:59;18.42;;;5.43;;
70008;SDS011;59542;37.950;-122.338;2022-12-29T02:03:58;17.45;;;4.88;;
70008;SDS011;59542;37.950;-122.338;2022-12-29T02:07:07;16.73;;;5.45;;
70008;SDS011;59542;37.950;-122.338;2022-12-29T02:09:17;18.92;;;4.50;;
70008;SDS011;59542;37.950;-122.338;2022-12-29T02:11:44;15.20;;;4.57;;
70008;SDS011;59542;37.950;-122.338;2022-12-29T02:14:11;18.13;;;5.40;;
70008;SDS011;59542;37.950;-122.338;2022-12-29T02:16:46;14.60;;;5.03;;
70008;SDS011;59542;37.950;-122.338;2022-12-29T02:22:19;14.45;;;4.45;;
70008;SDS011;59542;37.950;-122.338;2022-12-29T02:27:52;17.50;;;4.25;;
70008;SDS011;59542;37.950;-122.338;2022-12-29T02:33:30;15.20;;;5.30;;
70008;SDS011;59542;37.950;-122.338;2022-12-29T02:39:15;12.53;;;5.13;;
70008;SDS011;59542;37.950;-122.338;2022-12-29T02:47:24;20.30;;;5.30;;
70008;SDS011;59542;37.950;-122.338;2022-12-29T02:50:03;16.75;;;4.70;;
70008;SDS011;59542;37.950;-122.338;2022-12-29T02:52:34;15.70;;;4.30;;
70008;SDS011;59542;37.950;-122.338;2022-12-29T02:55:05;15.18;;;4.93;;
70008;SDS011;59542;37.950;-122.338;2022-12-29T02:57:33;26.92;;;6.28;;
70008;SDS011;59542;37.950;-122.338;2022-12-29T03:00:02;18.80;;;5.20;;
70008;SDS011;59542;37.950;-122.338;2022-12-29T03:05:22;16.80;;;6.15;;
70008;SDS011;59542;37.950;-122.338;2022-12-29T03:07:55;19.20;;;5.63;;
70008;SDS011;59542;37.950;-122.338;2022-12-29T03:10:37;22.98;;;5.95;;
70008;SDS011;59542;37.950;-122.338;2022-12-29T03:13:34;14.43;;;5.43;;
70008;SDS011;59542;37.950;-122.338;2022-12-29T03:16:35;16.02;;;4.88;;
70008;SDS011;59542;37.950;-122.338;2022-12-29T03:21:57;16.20;;;5.18;;
70008;SDS011;59542;37.950;-122.338;2022-12-29T03:24:44;14.65;;;4.47;;
70008;SDS011;59542;37.950;-122.338;2022-12-29T03:27:16;25.83;;;5.35;;
70008;SDS011;59542;37.950;-122.338;2022-12-29T03:29:52;13.00;;;4.40;;
70008;SDS011;59542;37.950;-122.338;2022-12-29T03:32:23;15.48;;;5.57;;
70008;SDS011;59542;37.950;-122.338;2022-12-29T03:34:53;11.77;;;4.25;;
70008;SDS011;59542;37.950;-122.338;2022-12-29T03:37:22;12.35;;;3.88;;
70008;SDS011;59542;37.950;-122.338;2022-12-29T03:39:54;17.30;;;4.45;;
70008;SDS011;59542;37.950;-122.338;2022-12-29T03:42:21;21.42;;;5.07;;
70008;SDS011;59542;37.950;-122.338;2022-12-29T03:44:55;13.48;;;3.75;;
70008;SDS011;59542;37.950;-122.338;2022-12-29T03:47:23;11.23;;;3.83;;
70008;SDS011;59542;37.950;-122.338;2022-12-29T03:49:50;9.55;;;3.80;;
70008;SDS011;59542;37.950;-122.338;2022-12-29T03:52:17;10.85;;;3.38;;
70008;SDS011;59542;37.950;-122.338;2022-12-29T03:54:43;13.65;;;4.18;;
70008;SDS011;59542;37.950;-122.338;2022-12-29T03:57:10;16.85;;;3.90;;
70008;SDS011;59542;37.950;-122.338;2022-12-29T03:59:37;16.92;;;4.38;;
70008;SDS011;59542;37.950;-122.338;2022-12-29T04:02:03;13.40;;;4.10;;
70008;SDS011;59542;37.950;-122.338;2022-12-29T04:04:30;10.45;;;3.58;;
70008;SDS011;59542;37.950;-122.338;2022-12-29T04:06:56;10.85;;;2.92;;
70008;SDS011;59542;37.950;-122.338;2022-12-29T04:09:22;9.05;;;3.03;;
70008;SDS011;59542;37.950;-122.338;2022-12-29T04:11:48;13.75;;;3.63;;
70008;SDS011;59542;37.950;-122.338;2022-12-29T04:14:15;14.52;;;4.10;;
70008;SDS011;59542;37.950;-122.338;2022-12-29T04:16:41;13.27;;;3.78;;
70008;SDS011;59542;37.950;-122.338;2022-12-29T04:19:07;12.68;;;3.25;;
70008;SDS011;59542;37.950;-122.338;2022-12-29T04:21:33;15.70;;;3.65;;
70008;SDS011;59542;37.950;-122.338;2022-12-29T04:24:00;9.40;;;3.22;;
70008;SDS011;59542;37.950;-122.338;2022-12-29T04:26:26;12.85;;;3.65;;
70008;SDS011;59542;37.950;-122.338;2022-12-29T04:28:52;7.93;;;3.10;;
70008;SDS011;59542;37.950;-122.338;2022-12-29T04:31:19;10.50;;;3.65;;
70008;SDS011;59542;37.950;-122.338;2022-12-29T04:33:45;18.80;;;4.10;;
70008;SDS011;59542;37.950;-122.338;2022-12-29T04:36:11;15.25;;;4.22;;
70008;SDS011;59542;37.950;-122.338;2022-12-29T04:38:37;12.13;;;3.80;;
70008;SDS011;59542;37.950;-122.338;2022-12-29T04:41:04;12.77;;;4.13;;
70008;SDS011;59542;37.950;-122.338;2022-12-29T04:43:30;10.55;;;3.67;;
70008;SDS011;59542;37.950;-122.338;2022-12-29T04:45:57;17.13;;;4.43;;
70008;SDS011;59542;37.950;-122.338;2022-12-29T04:48:23;14.18;;;5.03;;
70008;SDS011;59542;37.950;-122.338;2022-12-29T04:50:49;9.27;;;3.70;;
70008;SDS011;59542;37.950;-122.338;2022-12-29T04:53:16;10.90;;;4.00;;
70008;SDS011;59542;37.950;-122.338;2022-12-29T04:55:43;16.23;;;4.45;;
70008;SDS011;59542;37.950;-122.338;2022-12-29T04:58:10;13.35;;;4.00;;
70008;SDS011;59542;37.950;-122.338;2022-12-29T05:00:36;11.38;;;3.60;;
70008;SDS011;59542;37.950;-122.338;2022-12-29T05:03:02;12.80;;;4.10;;
70008;SDS011;59542;37.950;-122.338;2022-12-29T05:05:28;9.18;;;3.08;;
70008;SDS011;59542;37.950;-122.338;2022-12-29T05:07:55;8.77;;;3.28;;
70008;SDS011;59542;37.950;-122.338;2022-12-29T05:10:21;10.82;;;3.03;;
70008;SDS011;59542;37.950;-122.338;2022-12-29T05:12:47;8.32;;;2.58;;
70008;SDS011;59542;37.950;-122.338;2022-12-29T05:15:13;12.25;;;3.67;;
70008;SDS011;59542;37.950;-122.338;2022-12-29T05:17:40;9.02;;;3.45;;
70008;SDS011;59542;37.950;-122.338;2022-12-29T05:20:06;13.93;;;3.65;;
70008;SDS011;59542;37.950;-122.338;2022-12-29T05:22:33;9.68;;;3.92;;
70008;SDS011;59542;37.950;-122.338;2022-12-29T05:25:00;19.13;;;4.28;;
70008;SDS011;59542;37.950;-122.338;2022-12-29T05:27:26;9.10;;;3.35;;
70008;SDS011;59542;37.950;-122.338;2022-12-29T05:29:52;11.35;;;3.72;;
70008;SDS011;59542;37.950;-122.338;2022-12-29T05:32:18;9.80;;;3.92;;
70008;SDS011;59542;37.950;-122.338;2022-12-29T05:34:45;8.93;;;3.38;;
70008;SDS011;59542;37.950;-122.338;2022-12-29T05:37:11;7.35;;;3.42;;
70008;SDS011;59542;37.950;-122.338;2022-12-29T05:39:37;15.60;;;4.38;;
70008;SDS011;59542;37.950;-122.338;2022-12-29T05:42:03;12.35;;;4.00;;
70008;SDS011;59542;37.950;-122.338;2022-12-29T05:44:30;10.50;;;3.63;;
70008;SDS011;59542;37.950;-122.338;2022-12-29T05:46:56;11.32;;;3.85;;
70008;SDS011;59542;37.950;-122.338;2022-12-29T05:49:22;13.38;;;3.60;;
70008;SDS011;59542;37.950;-122.338;2022-12-29T05:51:48;12.38;;;3.80;;
70008;SDS011;59542;37.950;-122.338;2022-12-29T05:54:15;13.07;;;3.25;;
70008;SDS011;59542;37.950;-122.338;2022-12-29T05:56:41;13.07;;;4.50;;
70008;SDS011;59542;37.950;-122.338;2022-12-29T05:59:07;11.60;;;3.60;;
70008;SDS011;59542;37.950;-122.338;2022-12-29T06:01:33;8.63;;;3.65;;
70008;SDS011;59542;37.950;-122.338;2022-12-29T06:04:00;15.75;;;3.97;;
70008;SDS011;59542;37.950;-122.338;2022-12-29T06:06:26;11.07;;;3.80;;
70008;SDS011;59542;37.950;-122.338;2022-12-29T06:08:52;8.93;;;3.92;;
70008;SDS011;59542;37.950;-122.338;2022-12-29T06:11:19;15.15;;;5.50;;
70008;SDS011;59542;37.950;-122.338;2022-12-29T06:13:45;16.15;;;5.60;;
70008;SDS011;59542;37.950;-122.338;2022-12-29T06:16:11;12.32;;;5.25;;
70008;SDS011;59542;37.950;-122.338;2022-12-29T06:18:38;11.48;;;4.85;;
70008;SDS011;59542;37.950;-122.338;2022-12-29T06:21:04;12.02;;;4.82;;
70008;SDS011;59542;37.950;-122.338;2022-12-29T06:23:31;17.65;;;5.85;;
70008;SDS011;59542;37.950;-122.338;2022-12-29T06:25:57;18.30;;;6.22;;
70008;SDS011;59542;37.950;-122.338;2022-12-29T06:28:23;13.75;;;5.97;;
70008;SDS011;59542;37.950;-122.338;2022-12-29T06:30:50;18.25;;;6.45;;
70008;SDS011;59542;37.950;-122.338;2022-12-29T06:33:16;17.05;;;5.40;;
70008;SDS011;59542;37.950;-122.338;2022-12-29T06:35:42;16.08;;;4.80;;
70008;SDS011;59542;37.950;-122.338;2022-12-29T06:38:09;12.70;;;5.10;;
70008;SDS011;59542;37.950;-122.338;2022-12-29T06:40:35;14.77;;;4.32;;
70008;SDS011;59542;37.950;-122.338;2022-12-29T06:43:01;10.10;;;4.43;;
70008;SDS011;59542;37.950;-122.338;2022-12-29T06:45:27;8.63;;;3.65;;
70008;SDS011;59542;37.950;-122.338;2022-12-29T06:47:54;12.20;;;4.50;;
70008;SDS011;59542;37.950;-122.338;2022-12-29T06:50:20;15.52;;;4.13;;
70008;SDS011;59542;37.950;-122.338;2022-12-29T06:52:46;16.15;;;5.22;;
70008;SDS011;59542;37.950;-122.338;2022-12-29T06:55:13;15.95;;;4.90;;
70008;SDS011;59542;37.950;-122.338;2022-12-29T06:57:39;9.52;;;3.63;;
70008;SDS011;59542;37.950;-122.338;2022-12-29T07:00:06;12.45;;;3.95;;
70008;SDS011;59542;37.950;-122.338;2022-12-29T07:02:32;11.48;;;4.00;;
70008;SDS011;59542;37.950;-122.338;2022-12-29T07:04:59;20.48;;;5.45;;
70008;SDS011;59542;37.950;-122.338;2022-12-29T07:07:25;16.05;;;5.25;;
70008;SDS011;59542;37.950;-122.338;2022-12-29T07:09:51;11.15;;;4.25;;
70008;SDS011;59542;37.950;-122.338;2022-12-29T07:12:17;8.60;;;4.38;;
70008;SDS011;59542;37.950;-122.338;2022-12-29T07:14:43;13.15;;;4.80;;
70008;SDS011;59542;37.950;-122.338;2022-12-29T07:17:10;14.15;;;6.07;;
70008;SDS011;59542;37.950;-122.338;2022-12-29T07:19:36;12.38;;;5.10;;
70008;SDS011;59542;37.950;-122.338;2022-12-29T07:22:02;12.80;;;4.75;;
70008;SDS011;59542;37.950;-122.338;2022-12-29T07:24:28;10.73;;;4.28;;
70008;SDS011;59542;37.950;-122.338;2022-12-29T07:26:55;14.05;;;4.68;;
70008;SDS011;59542;37.950;-122.338;2022-12-29T07:29:21;8.43;;;3.60;;
70008;SDS011;59542;37.950;-122.338;2022-12-29T07:31:48;13.82;;;4.32;;
70008;SDS011;59542;37.950;-122.338;2022-12-29T07:34:14;12.80;;;3.45;;
70008;SDS011;59542;37.950;-122.338;2022-12-29T07:36:40;15.63;;;3.78;;
70008;SDS011;59542;37.950;-122.338;2022-12-29T07:39:06;12.63;;;3.95;;
70008;SDS011;59542;37.950;-122.338;2022-12-29T07:41:32;11.20;;;3.90;;
70008;SDS011;59542;37.950;-122.338;2022-12-29T07:43:59;15.45;;;4.93;;
70008;SDS011;59542;37.950;-122.338;2022-12-29T07:46:26;12.98;;;4.07;;
70008;SDS011;59542;37.950;-122.338;2022-12-29T07:48:52;14.88;;;4.40;;
70008;SDS011;59542;37.950;-122.338;2022-12-29T07:51:18;11.50;;;3.65;;
70008;SDS011;59542;37.950;-122.338;2022-12-29T07:53:45;11.88;;;3.90;;
70008;SDS011;59542;37.950;-122.338;2022-12-29T07:56:11;14.93;;;4.32;;
70008;SDS011;59542;37.950;-122.338;2022-12-29T07:58:37;11.63;;;3.55;;
70008;SDS011;59542;37.950;-122.338;2022-12-29T08:01:03;10.18;;;3.40;;
70008;SDS011;59542;37.950;-122.338;2022-12-29T08:03:30;8.48;;;3.70;;
70008;SDS011;59542;37.950;-122.338;2022-12-29T08:05:56;11.30;;;3.55;;
70008;SDS011;59542;37.950;-122.338;2022-12-29T08:08:23;14.10;;;4.13;;
70008;SDS011;59542;37.950;-122.338;2022-12-29T08:10:49;9.02;;;3.15;;
70008;SDS011;59542;37.950;-122.338;2022-12-29T08:13:15;11.45;;;4.03;;
70008;SDS011;59542;37.950;-122.338;2022-12-29T08:15:41;10.23;;;3.33;;
70008;SDS011;59542;37.950;-122.338;2022-12-29T08:18:08;18.98;;;3.85;;
70008;SDS011;59542;37.950;-122.338;2022-12-29T08:20:34;12.80;;;4.30;;
70008;SDS011;59542;37.950;-122.338;2022-12-29T08:23:00;17.23;;;4.18;;
70008;SDS011;59542;37.950;-122.338;2022-12-29T08:25:26;10.20;;;3.83;;
70008;SDS011;59542;37.950;-122.338;2022-12-29T08:27:53;8.18;;;3.50;;
70008;SDS011;59542;37.950;-122.338;2022-12-29T08:30:19;7.95;;;2.67;;
70008;SDS011;59542;37.950;-122.338;2022-12-29T08:32:45;8.57;;;3.15;;
70008;SDS011;59542;37.950;-122.338;2022-12-29T08:35:11;8.10;;;3.05;;
70008;SDS011;59542;37.950;-122.338;2022-12-29T08:37:38;10.35;;;2.42;;
70008;SDS011;59542;37.950;-122.338;2022-12-29T08:40:04;8.77;;;2.60;;
70008;SDS011;59542;37.950;-122.338;2022-12-29T08:42:31;9.45;;;2.90;;
70008;SDS011;59542;37.950;-122.338;2022-12-29T08:44:58;7.18;;;2.47;;
70008;SDS011;59542;37.950;-122.338;2022-12-29T08:47:25;9.77;;;3.28;;
70008;SDS011;59542;37.950;-122.338;2022-12-29T08:49:52;9.55;;;2.45;;
70008;SDS011;59542;37.950;-122.338;2022-12-29T08:52:18;7.43;;;2.28;;
70008;SDS011;59542;37.950;-122.338;2022-12-29T08:54:45;8.15;;;2.33;;
70008;SDS011;59542;37.950;-122.338;2022-12-29T08:57:11;7.40;;;1.90;;
70008;SDS011;59542;37.950;-122.338;2022-12-29T08:59:37;8.63;;;2.53;;
70008;SDS011;59542;37.950;-122.338;2022-12-29T09:02:04;9.75;;;2.00;;
70008;SDS011;59542;37.950;-122.338;2022-12-29T09:04:30;11.95;;;2.30;;
70008;SDS011;59542;37.950;-122.338;2022-12-29T09:06:56;9.13;;;2.22;;
70008;SDS011;59542;37.950;-122.338;2022-12-29T09:09:22;7.47;;;2.40;;
70008;SDS011;59542;37.950;-122.338;2022-12-29T09:11:49;14.02;;;2.55;;
70008;SDS011;59542;37.950;-122.338;2022-12-29T09:14:15;10.05;;;2.92;;
70008;SDS011;59542;37.950;-122.338;2022-12-29T09:16:41;10.15;;;2.53;;
70008;SDS011;59542;37.950;-122.338;2022-12-29T09:19:26;10.57;;;3.25;;
70008;SDS011;59542;37.950;-122.338;2022-12-29T09:21:52;8.27;;;2.15;;
70008;SDS011;59542;37.950;-122.338;2022-12-29T09:24:18;8.10;;;2.40;;
70008;SDS011;59542;37.950;-122.338;2022-12-29T09:26:45;7.03;;;2.40;;
70008;SDS011;59542;37.950;-122.338;2022-12-29T09:29:11;9.75;;;1.92;;
70008;SDS011;59542;37.950;-122.338;2022-12-29T09:31:37;9.40;;;2.40;;
70008;SDS011;59542;37.950;-122.338;2022-12-29T09:34:03;10.10;;;3.45;;
70008;SDS011;59542;37.950;-122.338;2022-12-29T09:36:29;13.23;;;2.65;;
70008;SDS011;59542;37.950;-122.338;2022-12-29T09:38:56;9.40;;;2.45;;
70008;SDS011;59542;37.950;-122.338;2022-12-29T09:41:24;10.57;;;2.95;;
70008;SDS011;59542;37.950;-122.338;2022-12-29T09:46:36;11.95;;;2.63;;
70008;SDS011;59542;37.950;-122.338;2022-12-29T09:51:54;9.73;;;2.53;;
70008;SDS011;59542;37.950;-122.338;2022-12-29T09:57:01;33.15;;;3.95;;
70008;SDS011;59542;37.950;-122.338;2022-12-29T09:59:34;14.05;;;3.47;;
70008;SDS011;59542;37.950;-122.338;2022-12-29T10:02:16;16.02;;;3.60;;
70008;SDS011;59542;37.950;-122.338;2022-12-29T10:06:09;14.02;;;3.40;;
70008;SDS011;59542;37.950;-122.338;2022-12-29T10:11:00;13.40;;;3.53;;
70008;SDS011;59542;37.950;-122.338;2022-12-29T10:13:36;11.77;;;3.50;;
70008;SDS011;59542;37.950;-122.338;2022-12-29T10:19:02;15.88;;;4.55;;
70008;SDS011;59542;37.950;-122.338;2022-12-29T10:21:43;14.93;;;3.13;;
70008;SDS011;59542;37.950;-122.338;2022-12-29T10:24:18;22.92;;;3.47;;
70008;SDS011;59542;37.950;-122.338;2022-12-29T10:26:47;15.00;;;3.72;;
70008;SDS011;59542;37.950;-122.338;2022-12-29T10:29:20;11.00;;;3.25;;
70008;SDS011;59542;37.950;-122.338;2022-12-29T10:34:34;11.88;;;3.10;;
70008;SDS011;59542;37.950;-122.338;2022-12-29T10:37:05;13.07;;;2.58;;
70008;SDS011;59542;37.950;-122.338;2022-12-29T10:39:41;12.27;;;2.67;;
70008;SDS011;59542;37.950;-122.338;2022-12-29T10:44:50;6.65;;;2.33;;
70008;SDS011;59542;37.950;-122.338;2022-12-29T10:47:18;8.77;;;2.42;;
70008;SDS011;59542;37.950;-122.338;2022-12-29T10:49:48;11.52;;;3.10;;
70008;SDS011;59542;37.950;-122.338;2022-12-29T10:52:16;7.15;;;2.40;;
70008;SDS011;59542;37.950;-122.338;2022-12-29T10:54:54;11.82;;;2.70;;
70008;SDS011;59542;37.950;-122.338;2022-12-29T10:57:41;7.43;;;2.17;;
70008;SDS011;59542;37.950;-122.338;2022-12-29T11:08:12;14.55;;;2.97;;
70008;SDS011;59542;37.950;-122.338;2022-12-29T11:10:43;9.43;;;2.75;;
70008;SDS011;59542;37.950;-122.338;2022-12-29T11:13:12;8.73;;;2.58;;
70008;SDS011;59542;37.950;-122.338;2022-12-29T11:15:44;15.15;;;5.55;;
70008;SDS011;59542;37.950;-122.338;2022-12-29T11:18:19;13.55;;;6.93;;
70008;SDS011;59542;37.950;-122.338;2022-12-29T11:20:53;20.13;;;8.10;;
70008;SDS011;59542;37.950;-122.338;2022-12-29T11:23:34;17.85;;;7.78;;
70008;SDS011;59542;37.950;-122.338;2022-12-29T11:28:37;16.23;;;6.78;;
70008;SDS011;59542;37.950;-122.338;2022-12-29T11:31:04;13.93;;;5.57;;
70008;SDS011;59542;37.950;-122.338;2022-12-29T11:33:32;14.07;;;6.68;;
70008;SDS011;59542;37.950;-122.338;2022-12-29T11:36:06;11.57;;;5.63;;
70008;SDS011;59542;37.950;-122.338;2022-12-29T11:38:55;11.93;;;4.97;;
70008;SDS011;59542;37.950;-122.338;2022-12-29T11:41:25;10.15;;;3.97;;
70008;SDS011;59542;37.950;-122.338;2022-12-29T11:43:53;16.55;;;3.22;;
70008;SDS011;59542;37.950;-122.338;2022-12-29T11:46:26;8.48;;;3.38;;
70008;SDS011;59542;37.950;-122.338;2022-12-29T11:48:56;12.48;;;3.75;;
70008;SDS011;59542;37.950;-122.338;2022-12-29T11:51:27;16.15;;;3.80;;
70008;SDS011;59542;37.950;-122.338;2022-12-29T11:54:04;9.32;;;2.90;;
70008;SDS011;59542;37.950;-122.338;2022-12-29T11:56:33;11.73;;;3.15;;
70008;SDS011;59542;37.950;-122.338;2022-12-29T12:01:55;11.23;;;2.90;;
70008;SDS011;59542;37.950;-122.338;2022-12-29T12:04:28;8.18;;;2.78;;
70008;SDS011;59542;37.950;-122.338;2022-12-29T12:09:59;9.32;;;2.92;;
70008;SDS011;59542;37.950;-122.338;2022-12-29T12:12:33;11.95;;;2.60;;
70008;SDS011;59542;37.950;-122.338;2022-12-29T12:15:18;9.82;;;2.80;;
70008;SDS011;59542;37.950;-122.338;2022-12-29T12:18:08;7.40;;;3.35;;
70008;SDS011;59542;37.950;-122.338;2022-12-29T12:20:48;13.48;;;3.08;;
70008;SDS011;59542;37.950;-122.338;2022-12-29T12:29:09;10.75;;;3.05;;
70008;SDS011;59542;37.950;-122.338;2022-12-29T12:31:44;4.25;;;1.92;;
70008;SDS011;59542;37.950;-122.338;2022-12-29T12:34:31;7.68;;;2.25;;
70008;SDS011;59542;37.950;-122.338;2022-12-29T12:37:12;8.85;;;2.33;;
70008;SDS011;59542;37.950;-122.338;2022-12-29T13:17:51;2.70;;;1.08;;
70008;SDS011;59542;37.950;-122.338;2022-12-29T13:20:41;2.30;;;0.93;;
70008;SDS011;59542;37.950;-122.338;2022-12-29T13:23:33;3.15;;;1.00;;
70008;SDS011;59542;37.950;-122.338;2022-12-29T13:29:17;3.15;;;0.93;;
70008;SDS011;59542;37.950;-122.338;2022-12-29T13:31:51;3.58;;;1.25;;
70008;SDS011;59542;37.950;-122.338;2022-12-29T13:36:59;6.93;;;1.20;;
70008;SDS011;59542;37.950;-122.338;2022-12-29T13:40:03;4.20;;;1.02;;
70008;SDS011;59542;37.950;-122.338;2022-12-29T13:42:25;8.38;;;1.10;;
70008;SDS011;59542;37.950;-122.338;2022-12-29T13:49:58;3.40;;;1.13;;
70008;SDS011;59542;37.950;-122.338;2022-12-29T13:52:31;3.10;;;1.13;;
70008;SDS011;59542;37.950;-122.338;2022-12-29T13:58:09;5.25;;;1.13;;
70008;SDS011;59542;37.950;-122.338;2022-12-29T14:00:47;6.40;;;1.17;;
70008;SDS011;59542;37.950;-122.338;2022-12-29T14:03:29;2.20;;;1.10;;
70008;SDS011;59542;37.950;-122.338;2022-12-29T14:09:25;3.00;;;0.95;;
70008;SDS011;59542;37.950;-122.338;2022-12-29T14:12:29;4.53;;;1.00;;
70008;SDS011;59542;37.950;-122.338;2022-12-29T14:17:36;3.75;;;0.90;;
70008;SDS011;59542;37.950;-122.338;2022-12-29T14:20:06;3.55;;;1.05;;
70008;SDS011;59542;37.950;-122.338;2022-12-29T14:28:33;5.68;;;1.30;;
70008;SDS011;59542;37.950;-122.338;2022-12-29T14:31:05;4.97;;;1.35;;
70008;SDS011;59542;37.950;-122.338;2022-12-29T14:33:40;4.28;;;1.23;;
70008;SDS011;59542;37.950;-122.338;2022-12-29T14:36:36;5.38;;;1.33;;
70008;SDS011;59542;37.950;-122.338;2022-12-29T14:42:10;4.78;;;1.25;;
70008;SDS011;59542;37.950;-122.338;2022-12-29T14:44:50;5.00;;;1.48;;
70008;SDS011;59542;37.950;-122.338;2022-12-29T14:47:27;3.85;;;1.40;;
70008;SDS011;59542;37.950;-122.338;2022-12-29T14:52:51;3.95;;;1.23;;
70008;SDS011;59542;37.950;-122.338;2022-12-29T15:00:46;5.63;;;1.58;;
70008;SDS011;59542;37.950;-122.338;2022-12-29T15:05:49;4.70;;;1.65;;
70008;SDS011;59542;37.950;-122.338;2022-12-29T15:08:22;6.20;;;1.25;;
70008;SDS011;59542;37.950;-122.338;2022-12-29T15:11:11;5.03;;;1.20;;
70008;SDS011;59542;37.950;-122.338;2022-12-29T15:13:40;4.85;;;1.70;;
70008;SDS011;59542;37.950;-122.338;2022-12-29T15:18:50;4.93;;;1.25;;
70008;SDS011;59542;37.950;-122.338;2022-12-29T15:21:17;3.67;;;1.40;;
70008;SDS011;59542;37.950;-122.338;2022-12-29T15:23:57;5.00;;;1.48;;
70008;SDS011;59542;37.950;-122.338;2022-12-29T15:26:35;4.50;;;1.60;;
70008;SDS011;59542;37.950;-122.338;2022-12-29T15:29:25;4.68;;;1.08;;
70008;SDS011;59542;37.950;-122.338;2022-12-29T15:34:47;5.18;;;2.08;;
70008;SDS011;59542;37.950;-122.338;2022-12-29T15:37:19;4.50;;;1.65;;
70008;SDS011;59542;37.950;-122.338;2022-12-29T15:39:48;2.25;;;1.20;;
70008;SDS011;59542;37.950;-122.338;2022-12-29T15:45:17;3.05;;;1.50;;
70008;SDS011;59542;37.950;-122.338;2022-12-29T15:47:44;4.03;;;1.30;;
70008;SDS011;59542;37.950;-122.338;2022-12-29T15:52:49;4.00;;;1.35;;
70008;SDS011;59542;37.950;-122.338;2022-12-29T15:55:20;3.22;;;1.27;;
70008;SDS011;59542;37.950;-122.338;2022-12-29T15:57:47;3.60;;;1.58;;
70008;SDS011;59542;37.950;-122.338;2022-12-29T16:00:23;2.97;;;1.33;;
70008;SDS011;59542;37.950;-122.338;2022-12-29T16:02:53;4.13;;;1.25;;
70008;SDS011;59542;37.950;-122.338;2022-12-29T16:05:21;2.97;;;1.30;;
70008;SDS011;59542;37.950;-122.338;2022-12-29T16:07:55;2.08;;;1.20;;
70008;SDS011;59542;37.950;-122.338;2022-12-29T16:10:38;2.83;;;1.30;;
70008;SDS011;59542;37.950;-122.338;2022-12-29T16:15:47;2.28;;;0.70;;
70008;SDS011;59542;37.950;-122.338;2022-12-29T16:18:23;5.75;;;2.15;;
70008;SDS011;59542;37.950;-122.338;2022-12-29T16:20:51;2.35;;;0.82;;
70008;SDS011;59542;37.950;-122.338;2022-12-29T16:23:22;2.90;;;1.17;;
70008;SDS011;59542;37.950;-122.338;2022-12-29T16:25:52;3.85;;;1.50;;
70008;SDS011;59542;37.950;-122.338;2022-12-29T16:28:21;3.28;;;1.35;;
70008;SDS011;59542;37.950;-122.338;2022-12-29T16:31:50;6.20;;;1.48;;
70008;SDS011;59542;37.950;-122.338;2022-12-29T16:33:58;2.60;;;1.15;;
70008;SDS011;59542;37.950;-122.338;2022-12-29T16:36:39;2.55;;;0.90;;
70008;SDS011;59542;37.950;-122.338;2022-12-29T16:41:51;4.00;;;1.30;;
70008;SDS011;59542;37.950;-122.338;2022-12-29T16:46:57;2.85;;;1.25;;
70008;SDS011;59542;37.950;-122.338;2022-12-29T16:49:36;2.05;;;1.00;;
70008;SDS011;59542;37.950;-122.338;2022-12-29T16:52:22;3.70;;;1.10;;
70008;SDS011;59542;37.950;-122.338;2022-12-29T16:54:56;3.05;;;1.30;;
70008;SDS011;59542;37.950;-122.338;2022-12-29T16:57:35;1.50;;;0.85;;
70008;SDS011;59542;37.950;-122.338;2022-12-29T17:00:04;1.20;;;0.80;;
70008;SDS011;59542;37.950;-122.338;2022-12-29T17:02:32;2.53;;;0.77;;
70008;SDS011;59542;37.950;-122.338;2022-12-29T17:05:13;1.55;;;0.82;;
70008;SDS011;59542;37.950;-122.338;2022-12-29T17:07:39;2.08;;;0.88;;
70008;SDS011;59542;37.950;-122.338;2022-12-29T17:10:06;1.90;;;1.00;;
70008;SDS011;59542;37.950;-122.338;2022-12-29T17:12:33;1.85;;;0.80;;